createdAt,value
2019-03-27T00:01:58.974Z,4.60
2019-03-27T00:04:25.712Z,5.80
2019-03-27T00:06:52.374Z,6.63
2019-03-27T00:09:19.153Z,6.67
2019-03-27T00:11:45.822Z,5.33
2019-03-27T00:14:12.599Z,5.60
2019-03-27T00:16:39.329Z,6.10
2019-03-27T00:19:06.004Z,5.70
2019-03-27T00:21:32.738Z,4.90
2019-03-27T00:23:59.421Z,5.93
2019-03-27T00:26:26.069Z,7.50
2019-03-27T00:28:52.912Z,7.30
2019-03-27T00:31:19.742Z,6.70
2019-03-27T00:33:46.372Z,5.93
2019-03-27T00:36:13.084Z,6.63
2019-03-27T00:38:39.835Z,6.30
2019-03-27T00:41:06.559Z,6.13
2019-03-27T00:43:33.184Z,5.83
2019-03-27T00:45:59.896Z,6.63
2019-03-27T00:48:26.603Z,6.77
2019-03-27T00:50:53.374Z,6.83
2019-03-27T00:53:20.019Z,7.40
2019-03-27T00:55:46.797Z,8.13
2019-03-27T00:58:13.559Z,8.30
2019-03-27T01:00:46.620Z,7.67
2019-03-27T01:03:13.408Z,8.17
2019-03-27T01:05:40.032Z,7.87
2019-03-27T01:08:06.806Z,8.10
2019-03-27T01:10:33.573Z,7.83
2019-03-27T01:13:00.272Z,8.57
2019-03-27T01:15:39.199Z,7.20
2019-03-27T01:21:04.655Z,7.60
2019-03-27T01:23:31.393Z,8.33
2019-03-27T01:28:42.164Z,7.60
2019-03-27T01:31:08.934Z,7.53
2019-03-27T01:33:35.595Z,7.63
2019-03-27T01:36:02.240Z,7.53
2019-03-27T01:38:29.075Z,7.60
2019-03-27T01:40:55.780Z,7.00
2019-03-27T01:43:22.452Z,7.77
2019-03-27T01:45:53.293Z,7.33
2019-03-27T01:48:17.575Z,7.97
2019-03-27T01:50:44.350Z,7.13
2019-03-27T01:53:11.052Z,8.13
2019-03-27T01:55:37.837Z,7.70
2019-03-27T01:58:04.591Z,7.37
2019-03-27T02:00:31.263Z,7.60
2019-03-27T02:02:57.948Z,7.17
2019-03-27T02:05:24.651Z,7.73
2019-03-27T02:07:51.386Z,6.50
2019-03-27T02:10:18.194Z,7.30
2019-03-27T02:12:44.820Z,6.83
2019-03-27T02:15:11.622Z,7.23
2019-03-27T02:17:38.316Z,7.17
2019-03-27T02:22:42.206Z,6.67
2019-03-27T02:25:09.364Z,6.50
2019-03-27T02:27:36.041Z,6.80
2019-03-27T02:30:04.555Z,6.90
2019-03-27T02:32:31.224Z,6.80
2019-03-27T02:34:57.988Z,6.57
2019-03-27T02:37:24.634Z,6.60
2019-03-27T02:39:51.431Z,6.10
2019-03-27T02:42:18.112Z,6.50
2019-03-27T02:44:44.842Z,7.63
2019-03-27T02:47:11.538Z,6.73
2019-03-27T02:49:38.176Z,8.17
2019-03-27T02:52:04.970Z,6.90
2019-03-27T02:54:31.605Z,8.20
2019-03-27T02:56:58.436Z,7.63
2019-03-27T02:59:25.107Z,7.77
2019-03-27T03:01:51.891Z,8.33
2019-03-27T03:04:18.526Z,7.80
2019-03-27T03:06:45.189Z,7.40
2019-03-27T03:09:11.836Z,7.63
2019-03-27T03:11:38.506Z,7.20
2019-03-27T03:14:05.147Z,6.60
2019-03-27T03:16:41.929Z,7.50
2019-03-27T03:19:00.445Z,7.30
2019-03-27T03:21:27.226Z,7.00
2019-03-27T03:23:53.870Z,7.13
2019-03-27T03:26:20.500Z,7.13
2019-03-27T03:28:47.187Z,6.17
2019-03-27T03:31:13.897Z,6.43
2019-03-27T03:33:40.542Z,7.23
2019-03-27T03:36:07.189Z,6.23
2019-03-27T03:38:33.892Z,6.30
2019-03-27T03:41:00.546Z,7.50
2019-03-27T03:43:27.207Z,7.10
2019-03-27T03:45:53.885Z,6.73
2019-03-27T03:48:20.533Z,7.00
2019-03-27T03:50:47.317Z,6.40
2019-03-27T03:53:14.099Z,6.53
2019-03-27T03:55:41.742Z,6.00
2019-03-27T03:58:09.824Z,6.20
2019-03-27T04:00:36.776Z,7.00
2019-03-27T04:03:03.975Z,6.77
2019-03-27T04:05:30.741Z,7.40
2019-03-27T04:07:57.405Z,7.07
2019-03-27T04:10:24.068Z,8.20
2019-03-27T04:12:50.853Z,8.13
2019-03-27T04:15:17.608Z,7.77
2019-03-27T04:17:44.385Z,7.97
2019-03-27T04:20:11.130Z,7.30
2019-03-27T04:22:37.852Z,7.27
2019-03-27T04:25:05.323Z,7.37
2019-03-27T04:27:32.113Z,6.70
2019-03-27T04:29:58.768Z,8.00
2019-03-27T04:32:25.548Z,8.20
2019-03-27T04:34:52.387Z,8.23
2019-03-27T04:37:19.070Z,6.97
2019-03-27T04:39:45.745Z,7.23
2019-03-27T04:42:12.401Z,9.40
2019-03-27T04:44:39.239Z,8.03
2019-03-27T04:47:05.886Z,8.20
2019-03-27T04:49:32.701Z,7.43
2019-03-27T04:51:59.370Z,7.93
2019-03-27T04:54:27.131Z,8.40
2019-03-27T04:56:54.126Z,8.50
2019-03-27T04:59:20.820Z,8.40
2019-03-27T05:01:47.463Z,8.60
2019-03-27T05:04:14.461Z,8.40
2019-03-27T05:06:41.162Z,7.80
2019-03-27T05:09:07.831Z,8.90
2019-03-27T05:11:34.483Z,9.20
2019-03-27T05:14:01.262Z,8.53
2019-03-27T05:16:27.996Z,9.37
2019-03-27T05:18:54.689Z,8.70
2019-03-27T05:21:21.452Z,8.03
2019-03-27T05:23:48.152Z,14.67
2019-03-27T05:26:14.841Z,8.10
2019-03-27T05:28:41.505Z,7.70
2019-03-27T05:31:08.268Z,8.10
2019-03-27T05:33:35.018Z,8.97
2019-03-27T05:36:01.692Z,8.40
2019-03-27T05:38:28.388Z,8.80
2019-03-27T05:40:55.051Z,8.50
2019-03-27T05:43:21.820Z,9.00
2019-03-27T05:45:48.598Z,9.20
2019-03-27T05:48:15.246Z,10.37
2019-03-27T05:50:41.928Z,10.43
2019-03-27T05:53:08.577Z,10.13
2019-03-27T05:55:35.345Z,9.80
2019-03-27T05:58:02.108Z,10.23
2019-03-27T06:00:28.841Z,10.47
2019-03-27T06:02:55.581Z,10.13
2019-03-27T06:05:22.269Z,8.97
2019-03-27T06:07:48.969Z,11.07
2019-03-27T06:10:16.514Z,11.10
2019-03-27T06:12:43.294Z,9.90
2019-03-27T06:15:10.092Z,11.97
2019-03-27T06:17:36.844Z,12.20
2019-03-27T06:20:05.380Z,12.60
2019-03-27T06:22:32.084Z,10.77
2019-03-27T06:24:58.897Z,11.00
2019-03-27T06:27:25.601Z,13.10
2019-03-27T06:29:52.252Z,12.37
2019-03-27T06:32:18.924Z,13.00
2019-03-27T06:34:45.725Z,11.70
2019-03-27T06:37:12.486Z,11.80
2019-03-27T06:39:58.916Z,11.90
2019-03-27T06:42:25.673Z,12.77
2019-03-27T06:44:52.457Z,12.63
2019-03-27T06:47:19.118Z,12.73
2019-03-27T06:49:45.804Z,12.63
2019-03-27T06:52:12.439Z,12.17
2019-03-27T06:54:39.131Z,11.37
2019-03-27T06:57:05.888Z,12.20
2019-03-27T06:59:32.549Z,13.17
2019-03-27T07:01:59.398Z,11.47
2019-03-27T07:04:26.051Z,11.50
2019-03-27T07:06:52.836Z,12.07
2019-03-27T07:09:19.570Z,12.87
2019-03-27T07:11:46.340Z,12.13
2019-03-27T07:14:12.997Z,13.73
2019-03-27T07:16:39.697Z,12.03
2019-03-27T07:19:06.353Z,13.10
2019-03-27T07:21:33.135Z,13.70
2019-03-27T07:23:59.897Z,12.83
2019-03-27T07:26:26.605Z,12.40
2019-03-27T07:28:53.297Z,12.50
2019-03-27T07:31:20.028Z,13.77
2019-03-27T07:33:46.723Z,12.57
2019-03-27T07:36:13.368Z,11.73
2019-03-27T07:38:40.028Z,12.30
2019-03-27T07:41:06.729Z,12.93
2019-03-27T07:43:33.549Z,12.70
2019-03-27T07:46:00.188Z,13.10
2019-03-27T07:48:26.931Z,13.90
2019-03-27T07:50:53.713Z,13.47
2019-03-27T07:53:22.522Z,14.73
2019-03-27T07:55:48.965Z,14.17
2019-03-27T07:58:15.616Z,14.00
2019-03-27T08:00:42.371Z,15.17
2019-03-27T08:03:09.039Z,13.10
2019-03-27T08:05:35.681Z,14.50
2019-03-27T08:08:02.409Z,14.73
2019-03-27T08:10:29.084Z,12.80
2019-03-27T08:12:55.862Z,14.30
2019-03-27T08:15:22.520Z,13.57
2019-03-27T08:17:49.212Z,14.43
2019-03-27T08:20:16.001Z,13.90
2019-03-27T08:22:42.778Z,13.87
2019-03-27T08:25:09.757Z,14.80
2019-03-27T08:27:36.532Z,15.70
2019-03-27T08:30:12.976Z,15.20
2019-03-27T08:32:39.669Z,14.30
2019-03-27T08:35:06.432Z,13.50
2019-03-27T08:37:33.141Z,14.33
2019-03-27T08:39:59.893Z,14.53
2019-03-27T08:42:26.585Z,13.43
2019-03-27T08:44:53.258Z,13.13
2019-03-27T08:47:19.906Z,12.70
2019-03-27T08:49:46.693Z,13.70
2019-03-27T08:52:13.386Z,14.30
2019-03-27T08:54:40.167Z,13.80
2019-03-27T08:57:06.914Z,14.33
2019-03-27T08:59:33.581Z,14.43
2019-03-27T09:02:00.341Z,14.97
2019-03-27T09:04:27.084Z,15.20
2019-03-27T09:06:53.775Z,14.80
2019-03-27T09:09:20.444Z,14.77
2019-03-27T09:11:47.082Z,13.63
2019-03-27T09:14:13.767Z,15.50
2019-03-27T09:16:40.799Z,14.40
2019-03-27T09:19:07.573Z,14.40
2019-03-27T09:21:34.252Z,13.93
2019-03-27T09:24:00.917Z,13.17
2019-03-27T09:26:27.641Z,13.73
2019-03-27T09:28:54.424Z,14.67
2019-03-27T09:31:21.062Z,15.33
2019-03-27T09:33:47.900Z,14.20
2019-03-27T09:36:14.817Z,13.50
2019-03-27T09:38:41.486Z,13.17
2019-03-27T09:41:08.268Z,13.93
2019-03-27T09:43:35.046Z,14.40
2019-03-27T09:46:01.733Z,12.40
2019-03-27T09:48:28.385Z,12.57
2019-03-27T09:50:55.061Z,11.93
2019-03-27T09:53:21.720Z,11.00
2019-03-27T09:55:48.431Z,9.33
2019-03-27T09:58:15.064Z,6.50
2019-03-27T10:00:48.183Z,7.17
2019-03-27T10:03:14.866Z,7.23
2019-03-27T10:05:41.638Z,6.83
2019-03-27T10:08:08.693Z,7.87
2019-03-27T10:10:35.370Z,7.70
2019-03-27T10:13:02.011Z,8.43
2019-03-27T10:15:28.668Z,7.50
2019-03-27T10:17:55.382Z,7.57
2019-03-27T10:20:22.106Z,6.60
2019-03-27T10:22:48.806Z,7.23
2019-03-27T10:25:15.484Z,6.90
2019-03-27T10:27:42.306Z,6.40
2019-03-27T10:30:09.514Z,6.40
2019-03-27T10:32:37.176Z,7.00
2019-03-27T10:35:04.755Z,5.40
2019-03-27T10:37:31.445Z,5.53
2019-03-27T10:39:58.226Z,5.40
2019-03-27T10:42:24.942Z,5.23
2019-03-27T10:44:51.736Z,4.70
2019-03-27T10:47:18.433Z,3.57
2019-03-27T10:49:45.066Z,3.40
2019-03-27T10:52:11.848Z,3.27
2019-03-27T10:54:38.539Z,3.30
2019-03-27T10:57:05.309Z,3.93
2019-03-27T10:59:32.024Z,3.53
2019-03-27T11:01:58.676Z,4.80
2019-03-27T11:04:25.357Z,6.00
2019-03-27T11:06:52.119Z,6.27
2019-03-27T11:09:18.895Z,6.23
2019-03-27T11:11:45.533Z,5.60
2019-03-27T11:14:12.222Z,3.73
2019-03-27T11:16:39.022Z,2.97
2019-03-27T11:19:05.712Z,4.67
2019-03-27T11:21:32.483Z,4.93
2019-03-27T11:23:59.166Z,4.10
2019-03-27T11:26:30.395Z,3.40
2019-03-27T11:28:57.104Z,3.07
2019-03-27T11:31:23.804Z,3.70
2019-03-27T11:33:50.505Z,4.23
2019-03-27T11:36:17.216Z,5.03
2019-03-27T11:38:50.075Z,5.40
2019-03-27T11:41:17.623Z,4.70
2019-03-27T11:43:54.336Z,4.67
2019-03-27T11:46:12.885Z,4.13
2019-03-27T11:48:39.601Z,3.40
2019-03-27T11:51:06.323Z,5.23
2019-03-27T11:53:33.120Z,4.53
2019-03-27T11:56:02.007Z,4.90
2019-03-27T11:58:28.406Z,4.53
2019-03-27T12:00:55.266Z,4.67
2019-03-27T12:03:22.078Z,5.03
2019-03-27T12:05:48.791Z,4.60
2019-03-27T12:08:15.428Z,2.93
2019-03-27T12:10:42.246Z,2.33
2019-03-27T12:13:08.892Z,2.50
2019-03-27T12:15:39.625Z,2.67
2019-03-27T12:18:08.202Z,2.30
2019-03-27T12:20:35.250Z,2.37
2019-03-27T12:23:02.331Z,1.73
2019-03-27T12:25:29.248Z,2.30
2019-03-27T12:27:56.362Z,2.90
2019-03-27T12:30:23.613Z,3.33
2019-03-27T12:32:50.442Z,3.00
2019-03-27T12:35:17.133Z,3.67
2019-03-27T12:37:43.877Z,4.20
2019-03-27T12:40:11.908Z,4.57
2019-03-27T12:42:38.949Z,4.30
2019-03-27T12:45:05.900Z,4.03
2019-03-27T12:47:32.550Z,4.77
2019-03-27T12:49:59.173Z,4.33
2019-03-27T12:52:25.863Z,3.80
2019-03-27T12:54:52.488Z,3.90
2019-03-27T12:57:19.172Z,4.47
2019-03-27T12:59:45.832Z,4.47
2019-03-27T13:02:12.516Z,3.80
2019-03-27T13:04:39.149Z,3.70
2019-03-27T13:07:05.828Z,3.83
2019-03-27T13:09:32.569Z,3.77
2019-03-27T13:11:59.369Z,3.70
2019-03-27T13:14:26.123Z,4.30
2019-03-27T13:17:12.638Z,4.00
2019-03-27T13:19:39.317Z,3.50
2019-03-27T13:22:06.055Z,3.37
2019-03-27T13:24:32.753Z,4.17
2019-03-27T13:26:59.492Z,4.00
2019-03-27T13:29:26.254Z,3.87
2019-03-27T13:31:52.913Z,3.53
2019-03-27T13:34:19.564Z,3.10
2019-03-27T13:36:47.966Z,4.07
2019-03-27T13:39:14.850Z,3.70
2019-03-27T13:41:41.639Z,3.63
2019-03-27T13:44:08.241Z,3.50
2019-03-27T13:46:35.029Z,3.20
2019-03-27T13:49:01.712Z,3.13
2019-03-27T13:51:39.776Z,3.37
2019-03-27T13:53:56.953Z,3.40
2019-03-27T13:56:23.572Z,3.20
2019-03-27T13:58:50.388Z,3.03
2019-03-27T14:01:17.146Z,2.40
2019-03-27T14:03:43.918Z,3.33
2019-03-27T14:06:11.593Z,3.77
2019-03-27T14:08:38.414Z,3.00
2019-03-27T14:11:05.161Z,2.80
2019-03-27T14:13:31.848Z,3.03
2019-03-27T14:15:58.472Z,3.20
2019-03-27T14:18:25.192Z,3.10
2019-03-27T14:20:51.869Z,3.10
2019-03-27T14:23:18.545Z,3.47
2019-03-27T14:25:45.267Z,3.30
2019-03-27T14:28:11.889Z,3.20
2019-03-27T14:30:48.073Z,3.90
2019-03-27T14:33:14.708Z,4.27
2019-03-27T14:35:41.454Z,3.90
2019-03-27T14:38:08.090Z,4.73
2019-03-27T14:40:34.879Z,5.40
2019-03-27T14:43:01.524Z,5.13
2019-03-27T14:45:28.175Z,5.03
2019-03-27T14:47:54.816Z,5.83
2019-03-27T14:50:21.496Z,6.50
2019-03-27T14:52:48.156Z,5.97
2019-03-27T14:55:14.776Z,6.33
2019-03-27T14:57:41.464Z,6.27
2019-03-27T15:00:09.932Z,5.50
2019-03-27T15:02:36.669Z,5.97
2019-03-27T15:05:06.354Z,6.90
2019-03-27T15:07:33.116Z,7.27
2019-03-27T15:09:59.794Z,6.27
2019-03-27T15:12:26.536Z,6.00
2019-03-27T15:14:53.327Z,6.10
2019-03-27T15:17:20.111Z,6.23
2019-03-27T15:19:46.788Z,5.77
2019-03-27T15:22:22.361Z,5.30
2019-03-27T15:24:42.232Z,5.70
2019-03-27T15:27:09.053Z,5.90
2019-03-27T15:29:35.805Z,5.40
2019-03-27T15:32:02.897Z,6.57
2019-03-27T15:34:29.557Z,6.80
2019-03-27T15:36:56.215Z,7.37
2019-03-27T15:39:22.994Z,7.00
2019-03-27T15:41:49.671Z,7.43
2019-03-27T15:44:16.304Z,7.30
2019-03-27T15:46:43.098Z,7.77
2019-03-27T15:49:09.748Z,9.00
2019-03-27T15:51:36.440Z,8.80
2019-03-27T15:54:03.185Z,7.87
2019-03-27T15:56:29.976Z,9.13
2019-03-27T15:58:56.661Z,8.90
2019-03-27T16:01:23.422Z,8.43
2019-03-27T16:03:50.077Z,9.00
2019-03-27T16:06:16.871Z,9.80
2019-03-27T16:08:43.528Z,8.70
2019-03-27T16:11:10.272Z,9.63
2019-03-27T16:13:37.068Z,9.53
2019-03-27T16:16:03.805Z,8.80
2019-03-27T16:18:30.496Z,9.23
2019-03-27T16:20:57.307Z,9.57
2019-03-27T16:23:24.001Z,9.67
2019-03-27T16:25:50.773Z,9.37
2019-03-27T16:28:17.458Z,9.47
2019-03-27T16:30:44.093Z,8.80
2019-03-27T16:33:10.784Z,9.10
2019-03-27T16:35:37.441Z,8.70
2019-03-27T16:38:04.113Z,8.70
2019-03-27T16:40:45.341Z,8.63
2019-03-27T16:43:12.257Z,8.00
2019-03-27T16:45:38.896Z,8.33
2019-03-27T16:48:05.563Z,8.20
2019-03-27T16:50:32.222Z,9.57
2019-03-27T16:53:03.676Z,7.70
2019-03-27T16:55:27.449Z,7.70
2019-03-27T16:57:54.085Z,7.40
2019-03-27T17:00:20.769Z,7.57
2019-03-27T17:02:47.408Z,7.73
2019-03-27T17:05:15.898Z,8.70
2019-03-27T17:07:42.669Z,8.70
2019-03-27T17:10:09.439Z,8.53
2019-03-27T17:12:36.191Z,9.07
2019-03-27T17:15:04.868Z,8.60
2019-03-27T17:17:31.658Z,8.80
2019-03-27T17:19:58.384Z,10.70
2019-03-27T17:22:25.129Z,9.80
2019-03-27T17:24:51.944Z,10.60
2019-03-27T17:27:18.627Z,11.40
2019-03-27T17:29:45.282Z,11.17
2019-03-27T17:32:11.986Z,11.00
2019-03-27T17:34:38.726Z,11.97
2019-03-27T17:37:05.401Z,12.30
2019-03-27T17:39:32.204Z,11.80
2019-03-27T17:41:58.831Z,12.37
2019-03-27T17:44:25.491Z,12.27
2019-03-27T17:46:52.264Z,12.40
2019-03-27T17:49:19.046Z,12.00
2019-03-27T17:51:45.725Z,11.10
2019-03-27T17:54:20.351Z,12.83
2019-03-27T17:56:40.905Z,11.90
2019-03-27T17:59:07.580Z,12.03
2019-03-27T18:01:34.320Z,12.37
2019-03-27T18:04:01.121Z,12.63
2019-03-27T18:06:27.781Z,12.20
2019-03-27T18:08:54.578Z,12.50
2019-03-27T18:11:21.221Z,13.33
2019-03-27T18:13:47.900Z,15.00
2019-03-27T18:16:16.969Z,13.23
2019-03-27T18:18:43.146Z,12.90
2019-03-27T18:21:09.870Z,12.20
2019-03-27T18:23:45.927Z,12.10
2019-03-27T18:26:05.377Z,11.20
2019-03-27T18:28:32.128Z,11.60
2019-03-27T18:30:58.811Z,12.13
2019-03-27T18:33:25.471Z,11.90
2019-03-27T18:35:52.154Z,12.33
2019-03-27T18:38:21.311Z,11.57
2019-03-27T18:40:47.998Z,12.60
2019-03-27T18:43:22.116Z,12.60
2019-03-27T18:45:48.782Z,11.73
2019-03-27T18:48:17.432Z,11.07
2019-03-27T18:50:44.140Z,11.23
2019-03-27T18:53:10.796Z,12.00
2019-03-27T18:55:37.569Z,13.10
2019-03-27T18:58:04.232Z,12.43
2019-03-27T19:00:30.988Z,12.27
2019-03-27T19:02:57.758Z,10.87
2019-03-27T19:05:24.434Z,12.00
2019-03-27T19:07:51.119Z,10.20
2019-03-27T19:10:17.835Z,11.63
2019-03-27T19:12:44.602Z,10.03
2019-03-27T19:15:11.404Z,10.80
2019-03-27T19:17:38.067Z,10.87
2019-03-27T19:20:05.772Z,10.10
2019-03-27T19:22:32.445Z,10.20
2019-03-27T19:24:59.172Z,9.97
2019-03-27T19:27:25.860Z,10.97
2019-03-27T19:29:52.520Z,11.17
2019-03-27T19:32:19.347Z,10.80
2019-03-27T19:34:45.971Z,9.03
2019-03-27T19:37:12.686Z,9.17
2019-03-27T19:39:39.476Z,9.70
2019-03-27T19:42:06.285Z,8.13
2019-03-27T19:44:32.932Z,9.00
2019-03-27T19:46:59.592Z,9.20
2019-03-27T19:49:26.267Z,7.83
2019-03-27T19:51:52.985Z,8.30
2019-03-27T19:54:27.117Z,8.60
2019-03-27T19:56:48.252Z,7.50
2019-03-27T19:59:15.408Z,8.27
2019-03-27T20:01:42.248Z,8.50
2019-03-27T20:04:08.996Z,8.10
2019-03-27T20:06:35.844Z,7.90
2019-03-27T20:09:04.459Z,7.17
2019-03-27T20:11:31.322Z,7.37
2019-03-27T20:13:58.080Z,7.80
2019-03-27T20:16:24.720Z,7.00
2019-03-27T20:18:51.400Z,6.63
2019-03-27T20:21:18.099Z,7.40
2019-03-27T20:23:44.884Z,6.30
2019-03-27T20:26:11.588Z,6.77
2019-03-27T20:28:38.249Z,6.07
2019-03-27T20:31:04.890Z,6.17
2019-03-27T20:33:31.583Z,6.57
2019-03-27T20:35:58.252Z,6.87
2019-03-27T20:38:24.945Z,6.60
2019-03-27T20:40:51.733Z,5.57
2019-03-27T20:43:18.381Z,6.00
2019-03-27T20:45:45.064Z,5.80
2019-03-27T20:48:11.771Z,6.17
2019-03-27T20:50:38.404Z,6.10
2019-03-27T20:53:05.076Z,5.93
2019-03-27T20:55:31.840Z,6.73
2019-03-27T20:57:58.497Z,6.93
2019-03-27T21:00:25.197Z,5.93
2019-03-27T21:02:51.851Z,7.30
2019-03-27T21:05:18.533Z,6.30
2019-03-27T21:07:45.276Z,5.80
2019-03-27T21:10:12.555Z,6.00
2019-03-27T21:12:39.208Z,6.70
2019-03-27T21:15:07.116Z,6.60
2019-03-27T21:17:33.741Z,6.00
2019-03-27T21:20:00.552Z,6.70
2019-03-27T21:22:27.241Z,7.43
2019-03-27T21:25:07.593Z,7.10
2019-03-27T21:27:22.418Z,8.17
2019-03-27T21:29:49.103Z,7.90
2019-03-27T21:32:15.763Z,7.03
2019-03-27T21:34:42.441Z,8.20
2019-03-27T21:37:09.095Z,8.20
2019-03-27T21:39:35.784Z,6.50
2019-03-27T21:42:02.434Z,6.70
2019-03-27T21:44:29.207Z,5.83
2019-03-27T21:46:55.996Z,7.37
2019-03-27T21:49:22.704Z,6.70
2019-03-27T21:51:49.504Z,6.73
2019-03-27T21:54:16.152Z,6.60
2019-03-27T21:56:42.851Z,7.33
2019-03-27T21:59:09.598Z,8.73
2019-03-27T22:01:36.275Z,7.73
2019-03-27T22:04:02.916Z,7.90
2019-03-27T22:06:29.624Z,9.20
2019-03-27T22:08:56.377Z,9.93
2019-03-27T22:11:23.060Z,9.93
2019-03-27T22:13:49.704Z,9.33
2019-03-27T22:16:16.404Z,8.73
2019-03-27T22:18:43.158Z,7.67
2019-03-27T22:21:11.864Z,7.70
2019-03-27T22:23:38.569Z,7.33
2019-03-27T22:26:05.268Z,8.23
2019-03-27T22:28:31.928Z,7.87
2019-03-27T22:30:58.714Z,9.37
2019-03-27T22:33:25.364Z,8.47
2019-03-27T22:35:52.040Z,7.70
2019-03-27T22:38:18.676Z,8.30
2019-03-27T22:40:45.360Z,7.50
2019-03-27T22:43:12.006Z,7.10
2019-03-27T22:45:38.676Z,7.30
2019-03-27T22:48:05.438Z,7.50
2019-03-27T22:50:32.120Z,7.30
2019-03-27T22:52:58.868Z,7.33
2019-03-27T22:55:25.668Z,8.00
2019-03-27T22:57:52.544Z,6.70
2019-03-27T23:00:21.145Z,7.03
2019-03-27T23:02:47.784Z,7.70
2019-03-27T23:05:14.721Z,6.93
2019-03-27T23:07:41.504Z,7.33
2019-03-27T23:10:08.360Z,6.40
2019-03-27T23:12:35.041Z,7.40
2019-03-27T23:15:01.706Z,7.33
2019-03-27T23:17:28.395Z,7.07
2019-03-27T23:19:55.161Z,8.23
2019-03-27T23:22:21.874Z,8.10
2019-03-27T23:24:48.545Z,7.67
2019-03-27T23:27:15.221Z,6.80
2019-03-27T23:29:41.861Z,7.43
2019-03-27T23:32:08.675Z,7.40
2019-03-27T23:34:35.363Z,7.70
2019-03-27T23:37:02.115Z,7.80
2019-03-27T23:39:28.839Z,7.47
2019-03-27T23:41:55.528Z,7.90
2019-03-27T23:44:22.206Z,8.40
2019-03-27T23:46:48.853Z,8.37
2019-03-27T23:49:15.530Z,8.27
2019-03-27T23:51:42.315Z,7.63
2019-03-27T23:54:08.964Z,7.80
2019-03-27T23:56:35.625Z,7.97
2019-03-27T23:59:02.400Z,8.53
